This is the latest recevied weather packets stored in our database for station/object LKKU. If no packets are shown the sender has not sent any weather packets the latest 10 day(s).
| Time | Temp. | Humidity | Pressure | Rain* | Wind** | Luminosity | Snow |
|---|---|---|---|---|---|---|---|
| 1788184987 | 25° C | 57% | 1015 hPa | - | - | - | - |
| 1788181386 | 25° C | 53% | 1015 hPa | - | - | - | - |
| 1788177786 | 26.11° C | 50% | 1015 hPa | - | - | - | - |
| 1788174187 | 26.11° C | 50% | 1015 hPa | - | - | - | - |
| 1788170586 | 27.22° C | 47% | 1015 hPa | - | - | - | - |
| 1788166985 | 25° C | 53% | 1015 hPa | - | - | - | - |
| 1788163386 | 25° C | 50% | 1014 hPa | - | - | - | - |
| 1788159786 | 22.22° C | 60% | 1014 hPa | - | - | - | - |
| 1788156168 | 20° C | 68% | 1015 hPa | - | - | - | - |
| 1788152586 | 17.22° C | 82% | 1015 hPa | - | - | - | - |
| 1788098587 | 28.89° C | 37% | 1015 hPa | - | - | - | - |
| 1788094986 | 28.89° C | 35% | 1015 hPa | - | - | - | - |
| 1788091386 | 27.78° C | 39% | 1016 hPa | - | - | - | - |
| 1788087786 | 27.22° C | 39% | 1016 hPa | - | - | - | - |
| 1788084185 | 27.22° C | 42% | 1017 hPa | - | - | - | - |
| 1788083650 | 26.11° C | 41% | 1017 hPa | - | - | - | - |
| 1788081785 | 26.11° C | 47% | 1017 hPa | - | - | - | - |
| 1788080586 | 25° C | 50% | 1017 hPa | - | - | - | - |
| 1788078765 | 23.89° C | 53% | 1017 hPa | - | - | - | - |
| 1788076986 | 22.22° C | 60% | 1017 hPa | - | - | - | - |
| 1788073386 | 18.89° C | 77% | 1017 hPa | - | - | - | - |
| 1788071417 | 16.11° C | 87% | 1017 hPa | - | - | - | - |
| 1788008564 | 26.11° C | 47% | 1016 hPa | - | - | - | - |
| 1788004984 | 26.11° C | 47% | 1016 hPa | - | - | - | - |
| 1788001386 | 23.89° C | 53% | 1017 hPa | - | - | - | - |
* Rain since midnight (hover to see other rain measurements)
** Current wind speed in m/s (hover to see current wind gust speed)